• Join FlightAware (Why Join?)
  • Login
  • US Flag 
08:37AM EDT


 

Airport Tracker/Info


-or-


 

Live Flight TrackerFlight Track Log ✈ N45EJ ✈ 09-Aug-2013 ✈ KPWK - KLBF

Flight Track Log - Related Links

Times and Time Zones

All times are in EDT time to prevent confusion due to time zone crossing. See the N45EJ flight status page for this flight to view local times or setup timezone preferences in your user account.

Time Position Orientation Groundspeed Altitude Reporting Facility
EDT Latitude Longitude Course Direction KTS MPH feet Rate Location/Type
10:59AM 42.1333 -87.9167 308° West 170 196 1,700  Level Chicago TRACON
10:59AM 42.1467 -87.9400 308° West 195 224 2,300 1,440 Climbing Chicago Center
11:00AM 42.1625 -88.0356 283° West 232 267 4,000 1,560 Climbing Chicago Center
11:02AM 42.1203 -88.1056 231° Southwest 257 296 5,600 2,400 Climbing Chicago Center
11:03AM 42.0572 -88.1608 213° Southwest 271 312 9,000 2,880 Climbing Chicago Center
11:04AM 41.9897 -88.2175 212° Southwest 284 327 11,700 2,280 Climbing Chicago Center
11:05AM 41.9686 -88.3122 253° West 274 315 13,800 2,100 Climbing Chicago Center
11:06AM 41.9606 -88.4453 265° West 295 339 16,100 1,860 Climbing Chicago Center
11:07AM 41.9472 -88.5683 262° West 327 376 17,700 1,560 Climbing Chicago Center
11:08AM 41.9231 -88.6919 255° West 342 394 19,400 1,620 Climbing Chicago Center
11:09AM 41.8994 -88.8194 256° West 353 406 21,100 1,620 Climbing Chicago Center
11:10AM 41.8708 -88.9744 256° West 359 413 22,800 1,500 Climbing Chicago Center
11:11AM 41.8503 -89.1061 258° West 362 417 24,200 1,740 Climbing Chicago Center
11:12AM 41.8456 -89.2394 267° West 364 419 26,500 1,980 Climbing Chicago Center
11:13AM 41.8447 -89.3694 270° West 351 404 28,300 1,740 Climbing Chicago Center
11:14AM 41.8442 -89.4992 270° West 351 404 30,200 1,740 Climbing Chicago Center
11:15AM 41.8403 -89.6536 268° West 347 399 32,000 1,440 Climbing Chicago Center
11:16AM 41.8378 -89.7847 269° West 353 406 33,300 1,380 Climbing Chicago Center
11:17AM 41.8372 -89.9172 270° West 349 402 34,900 1,860 Climbing Chicago Center
11:18AM 41.8353 -90.0353 269° West 321 369 37,200 1,740 Climbing Chicago Center
11:19AM 41.8339 -90.1497 269° West 312 359 38,600 1,260 Climbing Chicago Center
11:20AM 41.8308 -90.2642 268° West 310 357 39,900 660 Climbing Chicago Center
11:21AM 41.8289 -90.3806 269° West 314 361 40,000  Climbing Chicago Center
11:22AM 41.8256 -90.5339 268° West 342 394 40,000 660 Level Chicago Center
11:23AM 41.8203 -90.6689 267° West 361 415 41,400 960 Climbing Chicago Center
11:24AM 41.8167 -90.7972 268° West 350 403 42,100 660 Climbing Chicago Center
11:25AM 41.8131 -90.9244 268° West 346 398 42,800 420 Climbing Chicago Center
11:26AM 41.8097 -91.0558 268° West 353 406 43,000 60 Climbing Chicago Center
11:27AM 41.8044 -91.2200 268° West 368 423 43,000  Level Chicago Center
11:28AM 41.8008 -91.3614 268° West 378 435 43,000  Level Chicago Center
11:29AM 41.7958 -91.5006 267° West 378 435 43,000  Level Chicago Center
11:31AM 41.7903 -91.6406 267° West 379 436 43,000  Level Chicago Center
11:32AM 41.7867 -91.7806 268° West 378 435 43,000  Level Chicago Center
11:33AM 41.7803 -91.9475 267° West 377 434 43,000  Level Chicago Center
11:34AM 41.7758 -92.0867 268° West 377 434 43,000  Level Chicago Center
11:35AM 41.7700 -92.2258 267° West 377 434 43,000  Level Chicago Center
11:36AM 41.7644 -92.3661 267° West 380 437 43,000  Level Chicago Center
11:37AM 41.7592 -92.5050 267° West 377 434 43,000  Level Chicago Center
11:38AM 41.7517 -92.6731 267° West 379 436 43,000  Level Chicago Center
11:39AM 41.7461 -92.7972 267° West 380 437 43,000  Level Chicago Center
11:40AM 41.7389 -92.9658 267° West 380 437 43,000  Level Minneapolis Center
11:41AM 41.7319 -93.1053 266° West 380 437 43,000  Level Minneapolis Center
11:42AM 41.7256 -93.2450 267° West 380 437 43,000  Level Minneapolis Center
11:43AM 41.7178 -93.4117 266° West 379 436 43,000  Level Minneapolis Center
11:44AM 41.7103 -93.5506 266° West 378 435 43,000  Level Minneapolis Center
11:45AM 41.7036 -93.6881 266° West 375 432 43,000  Level Minneapolis Center
11:46AM 41.6958 -93.8275 266° West 379 436 43,000  Level Minneapolis Center
11:47AM 41.6869 -93.9928 266° West 383 441 43,000  Level Minneapolis Center
11:48AM 41.6806 -94.1325 267° West 379 436 43,000  Level Minneapolis Center
11:49AM 41.6703 -94.2728 264° West 379 436 43,000  Level Minneapolis Center
11:50AM 41.6611 -94.4125 265° West 379 436 43,000  Level Minneapolis Center
11:51AM 41.6542 -94.5539 266° West 381 438 43,000  Level Minneapolis Center
11:52AM 41.6453 -94.7242 266° West 383 441 43,000  Level Minneapolis Center
11:53AM 41.6372 -94.8669 266° West 386 444 43,000  Level Minneapolis Center
11:54AM 41.6308 -94.9781 266° West 379 436 43,000  Level Minneapolis Center
11:56AM 41.6172 -95.1764 265° West 382 440 43,000  Level Minneapolis Center
11:57AM 41.6083 -95.3189 265° West 385 443 43,000  Level Minneapolis Center
11:58AM 41.5975 -95.4897 265° West 386 444 43,000  Level Minneapolis Center
11:59AM 41.5869 -95.6311 264° West 385 443 43,000  Level Minneapolis Center
12:00PM 41.5764 -95.7789 265° West 388 447 43,000  Level Minneapolis Center
12:01PM 41.5667 -95.9211 265° West 387 445 43,000  Level Minneapolis Center
12:02PM 41.5564 -96.0639 265° West 386 444 43,000  Level Minneapolis Center
12:03PM 41.5461 -96.2064 265° West 387 445 43,000  Level Minneapolis Center
12:04PM 41.5347 -96.3653 265° West 386 444 43,000  Level Minneapolis Center
12:05PM 41.5264 -96.4797 264° West 390 449 43,000  Level Minneapolis Center
12:06PM 41.5136 -96.6500 264° West 388 447 43,000  Level Minneapolis Center
12:07PM 41.5011 -96.7919 263° West 387 445 43,000  Level Minneapolis Center
12:08PM 41.4878 -96.9622 264° West 386 444 43,000 -120 Level Minneapolis Center
12:09PM 41.4758 -97.1033 264° West 386 444 42,800 -360 Descending Minneapolis Center
12:10PM 41.4644 -97.2428 264° West 381 438 42,300 -540 Descending Minneapolis Center
12:11PM 41.4522 -97.3811 263° West 379 436 41,800 -540 Descending Minneapolis Center
12:12PM 41.4414 -97.5197 264° West 378 435 41,300 -540 Descending Minneapolis Center
12:13PM 41.4294 -97.6583 263° West 377 434 40,800 -720 Descending Minneapolis Center
12:14PM 41.4150 -97.8256 263° West 378 435 39,900 -840 Descending Minneapolis Center
12:15PM 41.4022 -97.9667 263° West 382 440 39,100 -780 Descending Minneapolis Center
12:16PM 41.3892 -98.1083 263° West 385 443 38,300 -540 Descending Minneapolis Center
12:17PM 41.3758 -98.2650 264° West 386 444 38,000 -360 Descending Minneapolis Center
12:18PM 41.3628 -98.4078 263° West 388 447 37,600 -1,020 Descending Minneapolis Center
12:19PM 41.3506 -98.5364 263° West 390 449 35,900 -2,700 Descending Minneapolis Center
12:20PM 41.3328 -98.7147 262° West 399 459 32,000 -3,300 Descending Minneapolis Center
12:22PM 41.3178 -98.8717 263° West 413 475 29,100 -1,800 Descending Minneapolis Center
12:23PM 41.3011 -99.0597 263° West 438 504 28,000 -660 Descending Denver Center
12:24PM 41.2831 -99.2278 262° West 427 491 27,700 -540 Descending Denver Center
12:25PM 41.2675 -99.3789 262° West 418 481 27,000 -840 Descending Denver Center
12:26PM 41.2506 -99.5431 262° West 409 471 26,000 -1,800 Descending Denver Center
12:27PM 41.2367 -99.6797 262° West 395 455 23,300 -2,940 Descending Denver Center
12:28PM 41.2206 -99.8369 262° West 387 445 20,000 -2,940 Descending Denver Center
12:29PM 41.2058 -99.9689 262° West 381 438 17,300 -3,120 Descending Denver Center
12:30PM 41.1894 -100.1153 262° West 364 419 13,600 -3,300 Descending Denver Center
12:31PM 41.1725 -100.2339 259° West 348 400 10,500 -2,700 Descending Denver Center
12:32PM 41.1303 -100.3489 244° Southwest 316 364 8,100 -2,340 Descending Denver Center
12:34PM 41.1333 -100.5421 270° West  Level FlightAware Approximate
12:41PM 41.1167 -100.6833 252° West  Level FlightAware Approximate
12:42PM 41.1262 -100.6837 252° West  Level Estimated
12:43PM 41.1262 -100.6837 252° West  Level Estimated
12:44PM 41.1262 -100.6837 252° West  Level Estimated
12:45PM 41.1262 -100.6837 252° West  Level Estimated
12:46PM 41.1262 -100.6837 252° West  Level Estimated
12:47PM 41.1262 -100.6837 252° West  Level Estimated
12:48PM 41.1262 -100.6837 252° West  Level Estimated
12:49PM 41.1262 -100.6837 252° West  Level Estimated
12:50PM 41.1262 -100.6837 252° West  Level Estimated
12:51PM 41.1262 -100.6837 252° West  Level Estimated
12:52PM 41.1262 -100.6837 252° West  Level Estimated
12:53PM 41.1262 -100.6837 252° West  Level Estimated
12:54PM 41.1262 -100.6837 252° West  Level Estimated